Time;durP1;ratioP1;P1;durP2;ratioP2;P2;SDS_P1;SDS_P2;PMS_P1;PMS_P2;Temp;Humidity;BMP_temperature;BMP_pressure;BME280_temperature;BME280_humidity;BME280_pressure;Samples;Min_cycle;Max_cycle;Signal;HPM_P1;HPM_P2
2023/05/12 00:00:12;;;;;;;13.65;11.80;;;16.80;99.90;;;17.19;88.63;101657.34;5115187;28;20437;-74
2023/05/12 00:02:42;;;;;;;14.60;11.65;;;16.80;99.90;;;17.02;88.75;101649.63;5115317;28;20065;-74
2023/05/12 00:05:11;;;;;;;12.73;11.07;;;16.70;99.90;;;16.29;88.88;101529.81;5096836;28;20047;-74
2023/05/12 00:07:40;;;;;;;12.43;11.13;;;16.70;99.90;;;16.97;88.98;101643.50;5096812;28;20039;-74
2023/05/12 00:10:10;;;;;;;13.90;11.93;;;16.70;99.90;;;16.96;88.81;101647.06;5114886;28;20044;-74
2023/05/12 00:12:38;;;;;;;14.55;12.00;;;16.70;99.90;;;16.92;88.87;101638.22;5114455;28;20665;-75
2023/05/12 00:15:08;;;;;;;14.98;10.77;;;16.70;99.90;;;16.93;88.68;101642.69;5096506;28;20142;-74
2023/05/12 00:17:36;;;;;;;14.15;11.70;;;16.60;99.90;;;16.78;88.57;101650.94;5111251;28;20076;-74
2023/05/12 00:20:06;;;;;;;12.60;11.02;;;16.50;99.90;;;16.78;88.69;101650.06;5096516;28;20047;-74
2023/05/12 00:22:35;;;;;;;11.88;10.65;;;16.50;99.90;;;16.73;88.63;101652.81;5114464;28;20047;-74
2023/05/12 00:25:05;;;;;;;11.82;10.57;;;16.40;99.90;;;16.75;88.47;101643.00;5114744;28;20408;-74
2023/05/12 00:27:34;;;;;;;12.85;10.88;;;16.40;99.90;;;16.80;88.39;101654.47;5114498;28;20074;-74
2023/05/12 00:30:02;;;;;;;11.65;10.43;;;16.50;99.90;;;16.69;88.24;101642.19;5096362;28;20039;-74
2023/05/12 00:32:31;;;;;;;11.70;10.40;;;16.40;99.90;;;16.82;88.04;101649.13;5096961;28;20048;-74
2023/05/12 00:34:59;;;;;;;11.57;10.13;;;16.50;99.90;;;16.80;87.94;101651.78;5114355;28;20046;-74
2023/05/12 00:37:28;;;;;;;12.27;10.02;;;16.50;99.90;;;16.62;87.84;101628.09;5110523;28;20038;-74
2023/05/12 00:39:56;;;;;;;11.82;10.05;;;16.50;99.90;;;16.66;87.90;101632.47;5110575;28;20067;-74
2023/05/12 00:42:26;;;;;;;12.10;10.10;;;16.40;99.90;;;16.68;87.58;101651.13;5113345;28;20050;-74
2023/05/12 00:44:54;;;;;;;12.00;9.88;;;16.40;99.90;;;16.04;87.15;101533.78;5114334;28;20078;-74
2023/05/12 00:47:23;;;;;;;10.98;9.82;;;16.40;99.90;;;16.68;86.89;101640.44;5114242;28;20047;-74
2023/05/12 00:49:51;;;;;;;10.45;9.35;;;16.40;99.90;;;16.61;87.42;101645.00;5113938;28;20074;-74
2023/05/12 00:52:21;;;;;;;10.95;9.68;;;16.30;99.90;;;16.61;87.08;101645.00;5095943;28;20050;-74
2023/05/12 00:54:50;;;;;;;11.80;9.65;;;16.30;99.90;;;16.59;87.24;101652.16;5114129;28;20081;-74
2023/05/12 00:57:20;;;;;;;10.73;9.65;;;16.30;99.90;;;16.57;87.45;101639.75;5095841;28;20071;-74
2023/05/12 00:59:50;;;;;;;10.98;9.20;;;16.20;99.90;;;16.57;87.38;101640.63;5110222;28;20047;-75
2023/05/12 01:02:19;;;;;;;11.03;8.90;;;16.20;99.90;;;16.58;87.27;101641.50;5095747;28;20050;-74
2023/05/12 01:04:47;;;;;;;12.73;9.63;;;16.20;99.90;;;16.58;87.47;101646.84;5113961;28;20430;-74
2023/05/12 01:07:19;;;;;;;10.45;9.35;;;16.20;99.90;;;16.52;86.60;101639.81;5113865;28;20122;-74
2023/05/12 01:09:48;;;;;;;9.77;8.77;;;16.30;99.90;;;16.53;86.90;101638.03;5087337;28;20571;-74
2023/05/12 01:12:16;;;;;;;9.15;8.35;;;16.20;99.90;;;16.43;86.83;101636.38;5095628;28;20055;-73
2023/05/12 01:14:45;;;;;;;11.07;8.20;;;16.10;99.90;;;16.39;86.90;101632.00;5113761;28;20131;-74
2023/05/12 01:17:20;;;;;;;10.00;9.00;;;16.10;99.90;;;16.48;86.12;101634.50;5113366;28;20472;-74
2023/05/12 01:19:53;;;;;;;9.55;8.65;;;16.10;99.90;;;16.31;86.49;101634.78;5084051;28;20427;-75
2023/05/12 01:22:22;;;;;;;9.45;8.55;;;16.10;99.90;;;16.31;87.01;101631.22;5087172;28;20050;-74
2023/05/12 01:25:01;;;;;;;8.38;7.57;;;16.00;99.90;;;16.25;87.35;101633.09;5095445;28;20054;-74
2023/05/12 01:27:34;;;;;;;8.98;8.15;;;16.00;99.90;;;16.17;87.72;101635.00;5109852;28;20077;-74
2023/05/12 01:30:06;;;;;;;8.38;7.57;;;15.90;99.90;;;16.14;87.50;101639.50;5095305;28;20046;-74
2023/05/12 01:32:36;;;;;;;9.60;7.72;;;15.80;99.90;;;16.09;87.76;101631.56;5087109;28;20134;-74
2023/05/12 01:35:07;;;;;;;8.90;7.95;;;15.80;99.90;;;16.09;87.74;101636.91;5095221;28;20135;-74
2023/05/12 01:37:37;;;;;;;11.10;7.57;;;15.80;99.90;;;16.06;87.85;101636.06;5113624;28;20465;-74
2023/05/12 01:40:07;;;;;;;8.95;7.80;;;15.70;99.90;;;16.09;87.87;101636.00;5091704;28;20493;-74
2023/05/12 01:42:39;;;;;;;8.27;7.45;;;15.80;99.90;;;16.03;87.51;101630.75;5092182;28;20405;-74
2023/05/12 01:45:10;;;;;;;9.90;7.75;;;15.70;99.90;;;15.94;87.38;101636.25;5095136;28;20127;-74
2023/05/12 01:47:38;;;;;;;10.50;8.63;;;15.70;99.90;;;15.95;87.64;101635.34;5086900;28;20043;-74
2023/05/12 01:50:10;;;;;;;9.00;8.10;;;15.70;99.90;;;15.96;87.72;101629.09;5113242;28;20084;-74
2023/05/12 01:52:39;;;;;;;11.35;8.50;;;15.70;99.90;;;15.94;87.95;101631.78;5086337;28;20058;-74
2023/05/12 01:55:11;;;;;;;11.13;9.82;;;15.70;99.90;;;15.88;87.87;101628.31;5094930;28;20049;-74
2023/05/12 01:57:52;;;;;;;15.45;10.20;;;15.70;99.90;;;15.85;88.09;101631.91;5094785;28;20043;-74
2023/05/12 02:00:21;;;;;;;13.57;9.70;;;15.70;99.90;;;15.81;88.58;101634.66;5103757;28;20374;-73
2023/05/12 02:02:52;;;;;;;15.07;10.98;;;15.60;99.90;;;15.81;88.69;101631.97;5094972;28;20040;-74
2023/05/12 02:05:21;;;;;;;15.27;11.07;;;15.60;99.90;;;15.84;88.86;101632.81;5094905;28;20504;-73
2023/05/12 02:07:50;;;;;;;13.73;10.85;;;15.60;99.90;;;15.80;89.22;101633.75;5088072;28;20051;-74
2023/05/12 02:10:19;;;;;;;15.63;11.07;;;15.50;99.90;;;15.81;89.38;101632.88;5094625;28;20419;-74
2023/05/12 02:12:48;;;;;;;13.85;11.10;;;15.50;99.90;;;15.84;89.11;101629.25;5086652;28;20050;-73
2023/05/12 02:15:18;;;;;;;15.60;10.80;;;15.60;99.90;;;15.80;89.29;101633.75;5094709;28;20467;-73
2023/05/12 02:17:49;;;;;;;;;;;15.50;99.90;;;15.83;89.22;101633.69;5094931;28;20044;-73
2023/05/12 02:20:18;;;;;;;15.35;10.80;;;15.60;99.90;;;15.87;89.20;101637.25;5094827;28;19923;-73
2023/05/12 02:22:47;;;;;;;14.27;10.38;;;15.60;99.90;;;15.65;89.58;101617.06;5083033;28;20040;-73
2023/05/12 02:25:16;;;;;;;12.80;10.68;;;15.50;99.90;;;15.74;89.71;101627.63;5112569;28;20040;-73
2023/05/12 02:27:45;;;;;;;16.08;11.10;;;15.50;99.90;;;15.81;89.93;101623.97;5074996;28;20475;-73
2023/05/12 02:30:14;;;;;;;17.10;11.57;;;15.50;99.90;;;15.77;90.04;101625.81;5112903;28;20039;-73
2023/05/12 02:32:43;;;;;;;14.35;11.43;;;15.50;99.90;;;15.72;90.21;101618.75;5112888;28;20047;-73
2023/05/12 02:35:12;;;;;;;18.27;12.25;;;15.50;99.90;;;15.80;90.31;101609.75;5112904;28;20057;-74
2023/05/12 02:37:42;;;;;;;18.67;11.80;;;15.60;99.90;;;15.68;90.50;101615.25;5094394;28;20040;-74
2023/05/12 02:40:11;;;;;;;15.50;12.60;;;15.40;99.90;;;15.60;91.00;101602.94;5094310;28;20051;-74
2023/05/12 02:42:42;;;;;;;18.67;13.05;;;15.30;99.90;;;15.62;91.69;101610.00;5113129;28;20044;-74
2023/05/12 02:45:12;;;;;;;21.08;12.38;;;15.40;99.90;;;15.53;91.71;101603.88;5112847;28;20149;-74
2023/05/12 02:47:44;;;;;;;18.58;11.75;;;15.30;99.90;;;15.64;91.50;101604.66;5109596;28;20046;-73
2023/05/12 02:50:13;;;;;;;20.80;12.18;;;15.40;99.90;;;15.64;91.45;101600.19;5094272;28;20052;-74
2023/05/12 02:52:42;;;;;;;19.38;12.75;;;15.40;99.90;;;15.62;91.71;101601.97;5112635;28;20123;-74
2023/05/12 02:55:10;;;;;;;20.33;12.70;;;15.40;99.90;;;15.60;91.77;101617.13;5094364;28;20051;-73
2023/05/12 02:57:38;;;;;;;21.70;13.77;;;15.40;99.90;;;15.58;92.06;101594.06;5112594;28;20115;-74
2023/05/12 03:00:08;;;;;;;17.23;12.52;;;15.40;99.90;;;15.54;91.87;101600.34;5112531;28;20071;-74
2023/05/12 03:02:40;;;;;;;18.80;12.50;;;15.30;99.90;;;15.42;92.64;101584.50;5082390;28;20393;-74
2023/05/12 03:05:10;;;;;;;18.48;12.38;;;15.20;99.90;;;15.45;92.83;101593.31;5110279;28;20074;-74
2023/05/12 03:07:39;;;;;;;20.23;13.10;;;15.20;99.90;;;15.41;92.98;101590.72;5116528;28;20481;-73
2023/05/12 03:10:09;;;;;;;18.63;13.40;;;15.20;99.90;;;15.30;93.03;101594.38;5097523;28;20054;-74
2023/05/12 03:15:28;;;;;;;19.00;12.23;;;15.10;99.90;;;15.25;94.08;101590.88;5993875;23;20022;-70
2023/05/12 03:17:57;;;;;;;18.67;11.25;;;15.00;99.90;;;15.20;93.62;101582.06;4939353;29;20062;-71
2023/05/12 03:20:27;;;;;;;16.02;10.10;;;15.00;99.90;;;15.12;94.05;101569.72;4940435;29;20052;-70
2023/05/12 03:22:55;;;;;;;14.47;9.57;;;14.90;99.90;;;15.13;93.76;101577.72;4929371;29;20111;-70
2023/05/12 03:25:24;;;;;;;10.55;8.75;;;14.90;99.90;;;15.08;93.63;101571.53;4933568;29;20056;-68
2023/05/12 03:27:53;;;;;;;13.25;8.73;;;14.80;99.90;;;15.04;94.16;101576.94;4929784;29;20056;-68
2023/05/12 03:30:21;;;;;;;14.75;9.68;;;14.80;99.90;;;15.05;94.14;101570.69;4926708;29;20374;-71
2023/05/12 03:32:49;;;;;;;15.02;9.20;;;14.80;99.90;;;15.00;94.19;101564.53;4926834;29;20496;-70
2023/05/12 03:35:18;;;;;;;15.15;9.88;;;14.80;99.90;;;15.01;94.47;101564.53;4944123;28;20056;-70
2023/05/12 03:37:48;;;;;;;13.43;9.68;;;14.70;99.90;;;14.98;94.14;101563.69;4927282;29;20048;-71
2023/05/12 03:40:17;;;;;;;;;;;14.70;99.90;;;14.97;94.43;101554.78;4943372;29;20048;-70
2023/05/12 03:42:47;;;;;;;11.68;8.48;;;14.80;99.90;;;14.79;94.87;101554.97;4943510;29;19992;-70
2023/05/12 03:45:18;;;;;;;12.27;8.63;;;14.60;99.90;;;14.70;95.84;101547.09;4941771;28;20044;-71
2023/05/12 03:47:46;;;;;;;11.50;7.53;;;14.50;99.90;;;14.76;96.38;101556.81;4929600;29;20056;-71
2023/05/12 03:50:15;;;;;;;9.05;6.93;;;14.50;99.90;;;14.71;96.37;101555.97;4940843;28;20501;-70
2023/05/12 03:52:44;;;;;;;7.53;6.68;;;14.50;99.90;;;14.75;96.97;101555.91;4940994;29;20042;-70
2023/05/12 03:55:14;;;;;;;7.57;6.03;;;14.50;99.90;;;14.82;96.60;101560.31;4929265;29;20039;-70
2023/05/12 03:57:43;;;;;;;8.38;6.25;;;14.60;99.90;;;14.76;96.61;101549.72;4942213;29;20063;-70
2023/05/12 04:00:13;;;;;;;8.40;6.25;;;14.60;99.90;;;14.75;97.01;101553.25;4942646;29;20099;-70
2023/05/12 04:02:45;;;;;;;6.25;5.55;;;14.60;99.90;;;14.78;96.76;101550.56;4943215;29;20601;-70
2023/05/12 04:05:15;;;;;;;7.90;5.75;;;14.60;99.90;;;14.73;97.12;101547.06;4941091;28;20557;-70
2023/05/12 04:07:43;;;;;;;7.68;5.55;;;14.50;99.90;;;14.51;97.36;101542.88;4929322;29;20048;-70
2023/05/12 04:10:11;;;;;;;6.28;5.10;;;14.40;99.90;;;14.51;98.26;101548.19;4925789;29;20055;-70
2023/05/12 04:12:41;;;;;;;9.75;5.00;;;14.30;99.90;;;14.57;98.43;101549.91;4943706;29;20408;-70
2023/05/12 04:15:13;;;;;;;7.15;5.30;;;14.40;99.90;;;14.66;98.56;101553.34;4941119;29;20048;-70
2023/05/12 04:17:41;;;;;;;11.23;5.15;;;14.50;99.90;;;14.57;98.69;101552.56;4927530;29;20139;-70
2023/05/12 04:20:10;;;;;;;7.10;5.30;;;14.40;99.90;;;14.63;98.87;101555.19;4927861;29;20055;-71
2023/05/12 04:22:39;;;;;;;5.53;5.00;;;14.40;99.90;;;14.60;98.57;101541.88;4926586;29;20051;-70
2023/05/12 04:25:09;;;;;;;8.93;5.50;;;14.50;99.90;;;14.63;99.06;101555.19;4928446;29;20459;-71
2023/05/12 04:27:38;;;;;;;7.40;4.78;;;14.40;99.90;;;14.52;98.85;101539.28;4940177;29;20052;-70
2023/05/12 04:30:09;;;;;;;7.35;5.45;;;14.30;99.90;;;14.55;98.97;101552.59;4921547;29;20126;-71
2023/05/12 04:32:40;;;;;;;7.55;4.85;;;14.30;99.90;;;14.59;98.82;101551.66;4941605;29;20450;-70
2023/05/12 04:35:09;;;;;;;7.15;5.40;;;14.40;99.90;;;14.59;98.90;101549.00;4942187;28;20099;-71
2023/05/12 04:37:37;;;;;;;8.18;5.22;;;14.40;99.90;;;14.55;98.64;101555.25;4927343;29;20139;-70
2023/05/12 04:40:08;;;;;;;8.43;5.35;;;14.40;99.90;;;14.55;99.11;101552.59;4941229;28;20288;-71
2023/05/12 04:42:36;;;;;;;9.57;5.90;;;14.40;99.90;;;14.53;99.30;101549.06;4942923;29;20146;-70
2023/05/12 04:45:09;;;;;;;8.95;6.65;;;14.40;99.90;;;14.60;99.22;101556.06;4939780;28;20492;-70
2023/05/12 04:47:38;;;;;;;7.85;6.80;;;14.40;99.90;;;14.59;99.34;101558.75;4924486;29;20631;-71
2023/05/12 04:50:09;;;;;;;9.10;6.80;;;14.40;99.90;;;14.57;99.41;101560.56;4927823;29;20044;-70
2023/05/12 04:52:37;;;;;;;13.05;7.53;;;14.40;99.90;;;14.60;99.31;101558.75;4922229;29;20056;-71
2023/05/12 04:55:07;;;;;;;12.25;8.73;;;14.40;99.90;;;14.53;99.48;101549.06;4941450;29;20055;-70
2023/05/12 04:57:36;;;;;;;12.75;7.60;;;14.40;99.90;;;14.52;99.53;101557.94;4926006;29;20444;-71
2023/05/12 05:00:06;;;;;;;10.95;8.10;;;14.40;99.90;;;14.52;99.87;101544.63;4942378;29;20051;-70
2023/05/12 05:02:36;;;;;;;;;;;14.40;99.90;;;14.56;100.00;101559.66;4940082;29;20449;-70
2023/05/12 05:05:06;;;;;;;11.98;9.18;;;14.40;99.90;;;14.56;100.00;101554.34;4925012;29;20344;-70
2023/05/12 05:07:35;;;;;;;14.98;9.32;;;14.40;99.90;;;14.67;100.00;101562.25;4942254;28;20181;-70
2023/05/12 05:10:04;;;;;;;13.10;9.20;;;14.50;99.90;;;14.62;100.00;101564.03;4940344;29;20052;-71
2023/05/12 05:12:33;;;;;;;15.45;8.98;;;14.40;99.90;;;14.69;100.00;101568.44;4941546;29;20059;-71
2023/05/12 05:15:01;;;;;;;13.95;10.27;;;14.40;99.90;;;14.71;100.00;101570.16;4941364;29;20166;-70
2023/05/12 05:17:30;;;;;;;15.82;9.77;;;14.50;99.90;;;14.79;100.00;101570.97;4932136;29;20481;-71
2023/05/12 05:20:00;;;;;;;17.60;10.65;;;14.60;99.90;;;14.73;100.00;101572.84;4941696;29;20055;-70
2023/05/12 05:22:33;;;;;;;14.32;11.45;;;14.50;99.90;;;14.75;100.00;101571.91;4939264;29;20087;-70
2023/05/12 05:25:02;;;;;;;17.38;12.32;;;14.50;99.90;;;14.85;100.00;101576.22;4934354;29;20404;-71
2023/05/12 05:27:30;;;;;;;17.40;12.82;;;14.60;99.90;;;14.87;100.00;101571.78;4924823;29;20040;-70
2023/05/12 05:29:58;;;;;;;15.43;12.52;;;14.70;99.90;;;14.90;100.00;101579.75;4926950;29;20083;-70
2023/05/12 05:32:27;;;;;;;19.52;14.25;;;14.70;99.90;;;14.83;100.00;101570.03;4937397;29;20432;-72
2023/05/12 05:34:55;;;;;;;17.73;13.10;;;14.70;99.90;;;14.90;100.00;101565.53;4926037;29;20040;-70
2023/05/12 05:37:26;;;;;;;18.13;14.55;;;14.70;99.90;;;14.83;100.00;101575.38;4940489;29;20058;-71
2023/05/12 05:39:56;;;;;;;17.67;15.05;;;14.60;99.90;;;14.98;100.00;101572.53;4938667;29;20587;-70
2023/05/12 05:42:24;;;;;;;19.42;15.20;;;14.70;99.90;;;14.99;100.00;101578.75;4939180;29;20075;-70
2023/05/12 05:44:53;;;;;;;20.45;15.63;;;14.70;99.90;;;15.02;100.00;101576.94;4923060;29;20464;-71
2023/05/12 05:47:23;;;;;;;22.17;16.13;;;14.80;99.90;;;15.07;100.00;101591.09;4941780;29;20043;-70
2023/05/12 05:49:51;;;;;;;20.83;16.40;;;14.80;99.90;;;15.09;100.00;101589.31;4925246;29;20118;-71
2023/05/12 05:52:20;;;;;;;20.77;16.75;;;14.90;99.90;;;15.08;100.00;101582.19;4926628;29;20091;-70
2023/05/12 05:54:49;;;;;;;18.75;16.75;;;14.80;99.90;;;15.07;100.00;101583.09;4926103;29;20082;-71
2023/05/12 05:57:20;;;;;;;19.92;17.35;;;14.80;99.90;;;15.12;100.00;101585.69;4940105;28;20407;-71
2023/05/12 05:59:49;;;;;;;21.25;18.08;;;14.80;99.90;;;15.14;100.00;101594.56;4938313;29;20044;-70
2023/05/12 06:02:17;;;;;;;23.00;18.30;;;14.90;99.90;;;15.13;100.00;101600.81;4938560;29;20052;-70
2023/05/12 06:04:46;;;;;;;22.50;17.98;;;14.90;99.90;;;15.13;100.00;101592.81;4938825;29;20186;-70
2023/05/12 06:07:15;;;;;;;21.67;18.75;;;14.90;99.90;;;15.13;100.00;101591.03;4938796;29;20052;-71
2023/05/12 06:09:44;;;;;;;26.83;19.05;;;15.00;99.90;;;15.19;100.00;101600.75;4941559;29;20500;-70
2023/05/12 06:12:13;;;;;;;22.75;18.58;;;14.90;99.90;;;15.19;100.00;101595.41;4925021;29;20066;-71
2023/05/12 06:14:42;;;;;;;24.25;19.42;;;15.00;99.90;;;15.23;100.00;101603.34;4925882;29;20112;-71
2023/05/12 06:17:10;;;;;;;25.90;19.08;;;15.00;99.90;;;15.24;100.00;101604.22;4925441;29;20056;-71
2023/05/12 06:19:38;;;;;;;27.88;20.50;;;15.00;99.90;;;15.22;100.00;101595.34;4931681;29;20070;-70
2023/05/12 06:22:07;;;;;;;27.08;22.15;;;15.00;99.90;;;15.27;100.00;101599.72;4937905;29;20052;-70
2023/05/12 06:24:35;;;;;;;26.67;21.67;;;15.00;99.90;;;15.29;100.00;101595.25;4941415;29;20051;-71
2023/05/12 06:27:03;;;;;;;30.67;22.65;;;15.00;99.90;;;15.36;100.00;101610.31;4924057;29;20059;-71
2023/05/12 06:29:33;;;;;;;29.35;23.52;;;15.10;99.90;;;15.42;100.00;101608.50;4927346;29;20047;-71
2023/05/12 06:32:02;;;;;;;33.60;25.90;;;15.20;99.90;;;15.36;100.00;101615.63;4938820;29;20151;-71
2023/05/12 06:34:30;;;;;;;39.20;27.20;;;15.10;99.90;;;15.41;100.00;101612.03;4926601;29;20062;-71
2023/05/12 06:36:58;;;;;;;41.42;27.25;;;15.20;99.90;;;14.87;100.00;101494.53;4936322;29;20599;-70
2023/05/12 06:39:27;;;;;;;36.33;27.80;;;15.20;99.90;;;15.55;100.00;101602.97;4926838;29;20104;-71
2023/05/12 06:41:55;;;;;;;42.25;30.70;;;15.30;99.90;;;15.50;100.00;101601.28;4929101;29;20503;-71
2023/05/12 06:44:23;;;;;;;43.97;30.70;;;15.30;99.90;;;15.57;100.00;101598.50;4941158;29;20052;-71
2023/05/12 06:46:56;;;;;;;47.75;33.03;;;15.30;99.90;;;15.48;100.00;101609.31;4944895;29;20547;-71
2023/05/12 06:49:24;;;;;;;57.65;34.42;;;15.30;99.90;;;15.43;100.00;101611.13;4927379;29;20583;-71
2023/05/12 06:51:52;;;;;;;48.88;35.25;;;15.20;99.90;;;15.45;100.00;101617.31;4927097;29;20052;-71
2023/05/12 06:54:21;;;;;;;47.47;35.20;;;15.20;99.90;;;15.57;100.00;101621.63;4927412;29;20511;-70
2023/05/12 06:56:49;;;;;;;53.63;36.30;;;15.30;99.90;;;15.66;100.00;101616.19;4930305;29;20040;-70
2023/05/12 06:59:17;;;;;;;49.25;35.35;;;15.40;99.90;;;15.61;100.00;101604.69;4928316;29;20048;-71
2023/05/12 07:01:48;;;;;;;55.45;36.28;;;15.40;99.90;;;15.75;100.00;101626.72;4929124;29;20044;-71
2023/05/12 07:04:20;;;;;;;50.40;34.90;;;15.40;99.90;;;15.68;100.00;101623.25;4928981;29;20103;-71
2023/05/12 07:06:48;;;;;;;48.85;34.63;;;15.40;99.90;;;15.80;100.00;101627.53;4942491;29;20108;-71
2023/05/12 07:09:17;;;;;;;50.20;35.08;;;15.50;99.90;;;15.87;100.00;101629.22;4929910;29;20044;-71
2023/05/12 07:11:46;;;;;;;48.75;34.70;;;15.60;99.90;;;15.94;100.00;101626.44;4926969;29;20067;-70
2023/05/12 07:14:15;;;;;;;49.17;34.17;;;15.70;99.90;;;15.98;100.00;101637.97;4926780;29;20501;-71
2023/05/12 07:16:43;;;;;;;46.10;33.35;;;15.70;99.90;;;16.02;100.00;101643.25;4929661;29;20051;-71
2023/05/12 07:19:12;;;;;;;46.80;33.67;;;15.80;99.90;;;16.06;100.00;101641.41;4927422;29;20415;-71
2023/05/12 07:21:42;;;;;;;45.72;31.48;;;15.80;99.90;;;16.05;100.00;101642.28;4928844;29;20055;-71
2023/05/12 07:24:10;;;;;;;44.83;30.80;;;15.80;99.90;;;16.04;100.00;101645.88;4928460;29;20048;-71
2023/05/12 07:26:38;;;;;;;48.55;32.78;;;15.80;99.90;;;16.04;100.00;101644.09;4928005;29;20492;-71
2023/05/12 07:29:09;;;;;;;45.40;32.47;;;15.80;99.90;;;16.17;100.00;101651.03;4928906;29;20050;-71
2023/05/12 07:31:41;;;;;;;41.03;29.38;;;15.90;99.90;;;15.93;100.00;101637.16;4926509;29;20048;-71
2023/05/12 07:34:09;;;;;;;36.80;28.27;;;15.70;99.90;;;16.09;100.00;101644.03;4926381;29;20116;-70
2023/05/12 07:36:37;;;;;;;36.53;26.92;;;15.80;99.90;;;16.13;100.00;101638.63;4929511;29;20094;-71
2023/05/12 07:39:07;;;;;;;34.38;26.65;;;15.90;99.90;;;16.14;100.00;101644.84;4927121;29;20139;-71
2023/05/12 07:41:37;;;;;;;29.50;22.77;;;15.90;99.90;;;16.17;100.00;101647.47;4928705;29;20150;-72
2023/05/12 07:44:06;;;;;;;33.20;23.05;;;15.90;99.90;;;15.66;99.71;101581.50;4928265;29;20048;-71
2023/05/12 07:46:35;;;;;;;31.67;22.73;;;15.90;99.90;;;16.24;99.90;101651.78;4927420;29;20075;-71
2023/05/12 07:49:03;;;;;;;30.48;23.23;;;16.00;99.90;;;16.30;99.50;101637.50;4929310;29;20059;-71
2023/05/12 07:51:31;;;;;;;28.95;22.35;;;16.10;99.90;;;16.42;99.58;101651.53;4926174;29;20050;-71
2023/05/12 07:54:00;;;;;;;30.70;23.48;;;16.10;99.90;;;16.50;98.63;101655.00;4929787;29;20467;-71
2023/05/12 07:56:30;;;;;;;30.65;23.67;;;16.20;99.90;;;16.53;97.62;101648.72;4926041;29;20453;-71
2023/05/12 07:58:58;;;;;;;30.90;22.65;;;16.30;99.90;;;16.58;97.51;101641.50;4926451;29;20044;-72
2023/05/12 08:01:26;;;;;;;31.25;23.23;;;16.40;99.90;;;16.78;97.20;101650.06;4928665;29;20481;-71
2023/05/12 08:03:54;;;;;;;30.08;22.20;;;16.50;99.90;;;16.83;96.53;101654.44;4927059;29;20512;-71
2023/05/12 08:06:23;;;;;;;30.15;22.58;;;16.60;99.90;;;16.94;96.67;101660.47;4928375;29;20404;-71
2023/05/12 08:08:52;;;;;;;29.77;22.63;;;16.70;99.90;;;16.95;95.89;101643.53;4927768;29;20072;-71
2023/05/12 08:11:20;;;;;;;28.48;22.83;;;16.80;99.90;;;16.92;95.08;101659.59;4927156;29;20138;-70
2023/05/12 08:13:50;;;;;;;30.23;22.42;;;16.70;99.90;;;16.84;94.60;101661.53;4928779;29;20054;-71
2023/05/12 08:16:18;;;;;;;30.03;22.97;;;16.60;99.90;;;16.90;94.76;101664.09;4926206;29;20112;-71
2023/05/12 08:18:47;;;;;;;33.35;22.52;;;16.60;99.90;;;16.82;94.33;101638.44;4929104;29;20044;-71
2023/05/12 08:21:15;;;;;;;29.90;21.50;;;16.70;99.90;;;16.66;93.37;101639.59;4921520;29;20507;-71
2023/05/12 08:23:44;;;;;;;28.40;21.63;;;16.70;99.90;;;16.74;93.72;101661.72;4925872;29;20123;-71
2023/05/12 08:26:12;;;;;;;31.75;22.95;;;16.60;99.90;;;16.96;93.78;101672.00;4928169;29;20044;-71
2023/05/12 08:28:40;;;;;;;31.42;22.33;;;16.70;99.90;;;17.10;93.85;101669.09;4938226;29;20091;-71
2023/05/12 08:31:10;;;;;;;31.60;23.38;;;16.90;99.90;;;16.83;92.52;101665.13;4927221;29;20048;-71
2023/05/12 08:33:38;;;;;;;29.02;22.23;;;16.80;99.90;;;17.02;93.07;101674.56;4926996;29;20059;-71
2023/05/12 08:36:07;;;;;;;33.20;23.35;;;16.80;99.90;;;17.17;93.16;101679.63;4927583;29;20087;-71
2023/05/12 08:38:36;;;;;;;29.15;22.77;;;16.90;99.90;;;17.23;92.26;101685.81;4925878;29;20561;-71
2023/05/12 08:41:13;;;;;;;31.52;23.48;;;17.00;99.90;;;17.25;91.79;101692.00;4928360;29;20044;-71
2023/05/12 08:43:44;;;;;;;32.53;24.10;;;17.00;99.90;;;17.26;91.93;101689.28;4940807;29;20056;-71
2023/05/12 08:46:14;;;;;;;;;;;17.00;99.90;;;17.26;91.50;101693.75;4927674;29;20547;-71
2023/05/12 08:48:43;;;;;;;29.23;22.92;;;17.10;99.90;;;17.28;91.82;101689.25;4926946;29;20307;-71
2023/05/12 08:51:13;;;;;;;30.52;23.92;;;17.00;99.90;;;17.30;91.76;101688.31;4940686;29;20044;-71
2023/05/12 08:53:42;;;;;;;32.45;23.33;;;17.10;99.90;;;17.48;91.88;101692.44;4928380;29;20427;-71
2023/05/12 08:56:12;;;;;;;30.70;24.15;;;17.20;99.90;;;17.56;91.92;101690.50;4939601;29;20063;-71
2023/05/12 08:58:47;;;;;;;29.85;23.90;;;17.30;99.90;;;17.58;91.52;101686.00;4925570;29;20048;-71
2023/05/12 09:01:19;;;;;;;32.75;24.77;;;17.40;99.90;;;17.77;91.37;101688.28;4926612;29;20044;-71
2023/05/12 09:03:48;;;;;;;29.73;22.95;;;17.50;99.90;;;17.83;90.06;101690.84;4926380;29;20123;-71
2023/05/12 09:06:17;;;;;;;27.58;22.65;;;17.60;99.90;;;17.78;88.91;101691.84;4925465;29;20404;-71
2023/05/12 09:08:46;;;;;;;30.90;22.73;;;17.60;99.90;;;17.68;89.10;101687.59;4927921;29;20044;-71
2023/05/12 09:11:16;;;;;;;29.83;23.70;;;17.50;99.90;;;17.73;89.59;101694.59;4924645;29;20092;-71
2023/05/12 09:13:52;;;;;;;28.50;22.58;;;17.50;99.90;;;17.89;90.02;101684.47;4924998;29;20047;-71
2023/05/12 09:16:25;;;;;;;27.98;21.70;;;17.70;99.90;;;17.93;88.86;101691.53;4926277;29;20068;-71
2023/05/12 09:18:57;;;;;;;31.40;22.17;;;17.70;99.90;;;17.96;88.76;101670.91;4927129;29;20531;-71
2023/05/12 09:21:26;;;;;;;29.13;22.17;;;17.80;99.90;;;18.16;88.33;101694.56;4924601;29;20489;-71
2023/05/12 09:23:56;;;;;;;30.00;22.13;;;17.90;99.90;;;18.26;87.81;101688.09;4924513;29;20063;-71
2023/05/12 09:26:27;;;;;;;29.05;21.88;;;18.10;99.90;;;18.25;87.42;101672.06;4927303;29;20175;-71
2023/05/12 09:29:06;;;;;;;27.60;22.38;;;18.10;99.90;;;18.33;86.76;101691.53;4925679;29;20044;-71
2023/05/12 09:31:37;;;;;;;30.35;23.38;;;18.20;99.90;;;18.37;86.47;101688.72;4924768;29;20052;-72
2023/05/12 09:34:08;;;;;;;26.42;20.77;;;18.20;99.90;;;18.38;85.40;101694.97;4924359;29;20048;-71
2023/05/12 09:36:37;;;;;;;26.90;20.10;;;18.20;99.90;;;18.39;84.38;101691.41;4941811;29;20079;-71
2023/05/12 09:39:07;;;;;;;26.30;20.65;;;18.20;99.90;;;18.32;84.28;101679.94;4925229;29;20174;-71
2023/05/12 09:41:36;;;;;;;;;;;18.20;99.90;;;18.28;84.58;101694.31;4926418;29;20048;-71
2023/05/12 09:44:05;;;;;;;27.38;20.65;;;18.10;99.90;;;18.52;85.20;101698.25;4926278;29;20018;-71
2023/05/12 09:46:34;;;;;;;24.73;20.17;;;18.30;99.90;;;18.63;84.42;101693.50;4925479;29;20067;-71
2023/05/12 09:49:03;;;;;;;26.92;22.42;;;18.40;99.90;;;18.65;84.30;101697.03;4938482;29;20060;-71
2023/05/12 09:51:32;;;;;;;26.17;22.07;;;18.40;99.90;;;18.70;83.74;101704.03;4927469;29;20131;-71
2023/05/12 09:54:01;;;;;;;26.73;20.38;;;18.40;99.90;;;18.78;84.21;101706.53;4924501;29;20295;-71
2023/05/12 09:56:32;;;;;;;26.98;21.10;;;18.60;99.90;;;18.90;83.67;101707.13;4927418;29;20047;-71
2023/05/12 09:59:04;;;;;;;26.83;21.52;;;18.70;99.90;;;18.64;82.77;101672.03;4925418;29;20044;-71
2023/05/12 10:01:33;;;;;;;26.48;21.50;;;18.70;99.90;;;18.99;83.19;101705.13;4940170;29;20056;-71
2023/05/12 10:04:07;;;;;;;23.77;19.77;;;18.70;99.90;;;19.03;82.31;101707.69;4926324;29;20044;-72
2023/05/12 10:06:41;;;;;;;25.05;20.70;;;18.80;99.90;;;19.17;82.76;101701.94;4924042;29;20048;-71
2023/05/12 10:09:17;;;;;;;23.52;19.65;;;18.90;99.90;;;19.23;81.82;101704.47;4924845;29;20143;-71
2023/05/12 10:11:47;;;;;;;24.80;20.20;;;19.00;99.90;;;19.40;81.79;101699.56;4925722;29;20058;-71
2023/05/12 10:14:19;;;;;;;24.75;20.40;;;19.20;99.90;;;19.45;81.42;101701.19;4928716;29;20044;-71